createdAt,value
2022-08-17T00:00:34.184Z,100.00
2022-08-17T00:05:58.820Z,100.00
2022-08-17T00:11:01.591Z,100.00
2022-08-17T00:16:08.758Z,100.00
2022-08-17T00:21:11.827Z,100.00
2022-08-17T00:26:16.118Z,100.00
2022-08-17T00:31:39.248Z,100.00
2022-08-17T00:36:41.345Z,100.00
2022-08-17T00:41:43.120Z,100.00
2022-08-17T00:46:45.025Z,100.00
2022-08-17T00:51:50.541Z,100.00
2022-08-17T00:56:56.728Z,100.00
2022-08-17T01:01:59.206Z,100.00
2022-08-17T01:07:03.408Z,100.00
2022-08-17T01:12:08.456Z,100.00
2022-08-17T01:17:10.507Z,100.00
2022-08-17T01:22:11.982Z,100.00
2022-08-17T01:27:15.080Z,100.00
2022-08-17T01:32:20.189Z,100.00
2022-08-17T01:37:29.988Z,100.00
2022-08-17T01:42:46.573Z,100.00
2022-08-17T01:47:48.379Z,100.00
2022-08-17T01:52:56.401Z,100.00
2022-08-17T01:57:58.211Z,100.00
2022-08-17T02:03:00.538Z,100.00
2022-08-17T02:08:03.647Z,100.00
2022-08-17T02:13:07.333Z,100.00
2022-08-17T02:18:10.315Z,100.00
2022-08-17T02:23:13.171Z,100.00
2022-08-17T02:28:15.128Z,100.00
2022-08-17T02:33:16.711Z,100.00
2022-08-17T02:38:21.879Z,100.00
2022-08-17T02:43:23.390Z,100.00
2022-08-17T02:48:29.708Z,100.00
2022-08-17T02:53:36.165Z,100.00
2022-08-17T02:58:37.881Z,100.00
2022-08-17T03:03:40.012Z,100.00
2022-08-17T03:08:41.527Z,100.00
2022-08-17T03:13:43.037Z,100.00
2022-08-17T03:18:44.555Z,100.00
2022-08-17T03:23:46.119Z,100.00
2022-08-17T03:28:47.792Z,100.00
2022-08-17T03:33:49.409Z,100.00
2022-08-17T03:38:51.074Z,100.00
2022-08-17T03:43:52.705Z,100.00
2022-08-17T03:49:13.104Z,100.00
2022-08-17T03:54:33.172Z,100.00
2022-08-17T03:59:36.216Z,100.00
2022-08-17T04:04:38.480Z,100.00
2022-08-17T04:09:40.030Z,100.00
2022-08-17T04:14:51.626Z,100.00
2022-08-17T04:19:56.275Z,100.00
2022-08-17T04:24:57.914Z,100.00
2022-08-17T04:30:00.974Z,100.00
2022-08-17T04:35:02.507Z,100.00
2022-08-17T04:40:22.851Z,100.00
2022-08-17T04:45:32.427Z,100.00
2022-08-17T04:50:36.030Z,100.00
2022-08-17T04:55:38.161Z,100.00
2022-08-17T05:00:40.092Z,100.00
2022-08-17T05:05:43.337Z,100.00
2022-08-17T05:10:45.811Z,100.00
2022-08-17T05:15:49.710Z,100.00
2022-08-17T05:20:52.534Z,100.00
2022-08-17T05:25:56.393Z,100.00
2022-08-17T05:31:01.312Z,100.00
2022-08-17T05:36:05.351Z,100.00
2022-08-17T05:41:08.231Z,100.00
2022-08-17T05:46:27.361Z,100.00
2022-08-17T05:51:53.012Z,100.00
2022-08-17T05:57:06.680Z,100.00
2022-08-17T06:02:23.328Z,100.00
2022-08-17T06:07:31.593Z,100.00
2022-08-17T06:12:57.591Z,100.00
2022-08-17T06:18:05.846Z,100.00
2022-08-17T06:23:12.722Z,100.00
2022-08-17T06:28:18.782Z,100.00
2022-08-17T06:33:26.643Z,100.00
2022-08-17T06:38:41.210Z,100.00
2022-08-17T06:44:06.866Z,100.00
2022-08-17T06:49:30.155Z,100.00
2022-08-17T06:54:39.371Z,100.00
2022-08-17T06:59:56.451Z,100.00
2022-08-17T07:05:01.704Z,100.00
2022-08-17T07:10:03.610Z,100.00
2022-08-17T07:15:12.487Z,100.00
2022-08-17T07:20:23.307Z,100.00
2022-08-17T07:25:25.783Z,100.00
2022-08-17T07:30:45.554Z,100.00
2022-08-17T07:35:50.017Z,100.00
2022-08-17T07:40:58.038Z,100.00
2022-08-17T07:46:24.041Z,100.00
2022-08-17T07:51:28.767Z,100.00
2022-08-17T07:57:00.386Z,100.00
2022-08-17T08:02:16.268Z,100.00
2022-08-17T08:07:20.216Z,100.00
2022-08-17T08:12:24.680Z,100.00
2022-08-17T08:17:44.797Z,100.00
2022-08-17T08:22:57.768Z,100.00
2022-08-17T08:28:27.538Z,99.29
2022-08-17T08:33:49.248Z,98.36
2022-08-17T08:39:02.905Z,98.63
2022-08-17T08:44:59.528Z,97.57
2022-08-17T08:50:07.587Z,94.52
2022-08-17T08:55:34.426Z,94.90
2022-08-17T09:00:44.055Z,93.92
2022-08-17T09:06:33.330Z,94.53
2022-08-17T09:12:01.031Z,94.72
2022-08-17T09:17:14.298Z,93.49
2022-08-17T09:22:26.412Z,92.63
2022-08-17T09:27:34.874Z,89.96
2022-08-17T09:32:39.404Z,90.22
2022-08-17T09:38:02.124Z,88.38
2022-08-17T09:43:19.937Z,86.70
2022-08-17T09:48:29.186Z,85.88
2022-08-17T09:53:32.194Z,86.00
2022-08-17T09:58:52.061Z,84.41
2022-08-17T10:04:18.729Z,81.55
2022-08-17T10:09:55.579Z,80.60
2022-08-17T10:14:59.894Z,75.00
2022-08-17T10:20:17.179Z,70.10
2022-08-17T10:25:54.038Z,67.21
2022-08-17T10:31:30.983Z,67.22
2022-08-17T10:36:52.415Z,64.90
2022-08-17T10:41:59.227Z,55.68
2022-08-17T10:47:14.397Z,51.58
2022-08-17T10:52:28.058Z,52.21
2022-08-17T10:57:29.660Z,52.95
2022-08-17T11:02:50.971Z,51.42
2022-08-17T11:08:14.454Z,47.81
2022-08-17T11:13:35.404Z,43.31
2022-08-17T11:19:08.571Z,44.18
2022-08-17T11:24:14.727Z,45.12
2022-08-17T11:29:24.776Z,45.92
2022-08-17T11:34:29.982Z,46.73
2022-08-17T11:39:34.826Z,50.03
2022-08-17T11:44:59.541Z,50.55
2022-08-17T11:50:36.646Z,50.29
2022-08-17T11:55:41.868Z,53.51
2022-08-17T12:00:46.324Z,53.18
2022-08-17T12:05:48.440Z,51.41
2022-08-17T12:10:56.005Z,50.73
2022-08-17T12:15:58.332Z,51.15
2022-08-17T12:21:22.157Z,51.23
2022-08-17T12:26:31.606Z,49.47
2022-08-17T12:31:47.192Z,51.48
2022-08-17T12:36:51.309Z,50.24
2022-08-17T12:42:01.963Z,53.52
2022-08-17T12:47:19.354Z,56.37
2022-08-17T12:52:26.743Z,58.45
2022-08-17T12:57:47.568Z,59.00
2022-08-17T13:03:21.725Z,59.98
2022-08-17T13:08:45.466Z,61.60
2022-08-17T13:13:54.833Z,62.48
2022-08-17T13:19:15.092Z,62.79
2022-08-17T13:24:38.206Z,64.43
2022-08-17T13:29:52.968Z,65.56
2022-08-17T13:35:12.867Z,64.87
2022-08-17T13:40:18.185Z,65.40
2022-08-17T13:45:36.514Z,64.17
2022-08-17T13:50:47.674Z,63.60
2022-08-17T13:55:59.224Z,62.93
2022-08-17T14:01:34.049Z,62.40
2022-08-17T14:06:53.984Z,64.05
2022-08-17T14:11:58.170Z,62.24
2022-08-17T14:16:59.789Z,61.29
2022-08-17T14:22:01.791Z,61.46
2022-08-17T14:27:05.341Z,62.11
2022-08-17T14:32:17.725Z,63.29
2022-08-17T14:37:21.088Z,63.86
2022-08-17T14:42:27.053Z,64.66
2022-08-17T14:47:28.594Z,65.45
2022-08-17T14:52:30.426Z,64.11
2022-08-17T14:57:34.078Z,63.66
2022-08-17T15:02:54.691Z,64.86
2022-08-17T15:07:56.349Z,65.45
2022-08-17T15:13:00.182Z,66.98
2022-08-17T15:18:02.383Z,68.16
2022-08-17T15:23:04.372Z,69.28
2022-08-17T15:28:07.371Z,68.33
2022-08-17T15:33:19.047Z,68.43
2022-08-17T15:38:20.645Z,70.14
2022-08-17T15:43:28.390Z,68.91
2022-08-17T15:48:41.716Z,69.82
2022-08-17T15:53:45.818Z,70.32
2022-08-17T15:58:48.668Z,70.52
2022-08-17T16:04:03.975Z,71.31
2022-08-17T16:09:08.897Z,71.69
2022-08-17T16:14:10.418Z,72.11
2022-08-17T16:19:15.338Z,72.09
2022-08-17T16:24:16.859Z,71.67
2022-08-17T16:29:18.498Z,69.98
2022-08-17T16:34:20.027Z,64.09
2022-08-17T16:39:21.627Z,61.62
2022-08-17T16:44:23.572Z,55.44
2022-08-17T16:49:37.465Z,56.75
2022-08-17T16:54:44.377Z,56.56
2022-08-17T16:59:51.332Z,55.98
2022-08-17T17:05:05.818Z,57.29
2022-08-17T17:10:14.117Z,57.09
2022-08-17T17:15:22.010Z,58.42
2022-08-17T17:20:28.366Z,59.43
2022-08-17T17:25:44.500Z,60.71
2022-08-17T17:30:50.303Z,61.26
2022-08-17T17:35:59.085Z,62.42
2022-08-17T17:41:05.489Z,63.07
2022-08-17T17:46:29.162Z,63.27
2022-08-17T17:52:05.899Z,62.95
2022-08-17T17:57:20.485Z,63.43
2022-08-17T18:02:53.160Z,63.98
2022-08-17T18:08:31.927Z,65.50
2022-08-17T18:13:53.505Z,66.73
2022-08-17T18:18:57.651Z,68.38
2022-08-17T18:24:01.262Z,70.63
2022-08-17T18:29:12.594Z,72.79
2022-08-17T18:34:45.808Z,74.15
2022-08-17T18:39:46.846Z,76.52
2022-08-17T18:44:54.331Z,79.14
2022-08-17T18:50:25.477Z,81.04
2022-08-17T18:55:29.231Z,82.66
2022-08-17T19:00:33.691Z,83.88
2022-08-17T19:05:41.969Z,85.05
2022-08-17T19:10:47.145Z,85.50
2022-08-17T19:16:29.918Z,86.65
2022-08-17T19:21:40.270Z,87.48
2022-08-17T19:26:54.452Z,88.18
2022-08-17T19:31:59.294Z,88.61
2022-08-17T19:37:23.242Z,90.43
2022-08-17T19:43:03.114Z,91.67
2022-08-17T19:48:07.557Z,92.19
2022-08-17T19:54:04.816Z,93.48
2022-08-17T19:59:36.368Z,97.27
2022-08-17T20:04:43.056Z,100.00
2022-08-17T20:09:51.623Z,100.00
2022-08-17T20:14:57.612Z,100.00
2022-08-17T20:20:25.856Z,100.00
2022-08-17T20:25:46.835Z,100.00
2022-08-17T20:30:48.759Z,100.00
2022-08-17T20:36:09.951Z,100.00
2022-08-17T20:41:15.393Z,100.00
2022-08-17T20:46:28.892Z,100.00
2022-08-17T20:51:40.138Z,100.00
2022-08-17T20:56:44.692Z,100.00
2022-08-17T21:02:02.618Z,100.00
2022-08-17T21:07:43.030Z,100.00
2022-08-17T21:12:53.950Z,100.00
2022-08-17T21:18:12.734Z,100.00
2022-08-17T21:23:30.249Z,100.00
2022-08-17T21:29:00.348Z,100.00
2022-08-17T21:34:14.880Z,100.00
2022-08-17T21:39:21.433Z,100.00
2022-08-17T21:44:50.299Z,100.00
2022-08-17T21:49:53.492Z,100.00
2022-08-17T21:55:02.286Z,100.00
2022-08-17T22:00:15.978Z,100.00
2022-08-17T22:05:31.880Z,100.00
2022-08-17T22:11:01.084Z,100.00
2022-08-17T22:16:28.319Z,100.00
2022-08-17T22:21:31.159Z,100.00
2022-08-17T22:27:03.075Z,100.00
2022-08-17T22:32:04.953Z,100.00
2022-08-17T22:37:28.381Z,100.00
2022-08-17T22:42:30.042Z,100.00
2022-08-17T22:47:40.899Z,100.00
2022-08-17T22:53:14.001Z,100.00
2022-08-17T22:58:38.248Z,100.00
2022-08-17T23:03:54.994Z,100.00
2022-08-17T23:08:57.602Z,100.00
2022-08-17T23:13:59.370Z,100.00
2022-08-17T23:19:00.915Z,100.00
2022-08-17T23:24:04.626Z,100.00
2022-08-17T23:29:08.907Z,100.00
2022-08-17T23:34:13.131Z,100.00
2022-08-17T23:39:14.666Z,100.00
2022-08-17T23:44:27.628Z,100.00
2022-08-17T23:49:31.185Z,100.00
2022-08-17T23:54:43.503Z,100.00
2022-08-17T23:59:45.126Z,100.00
